Time;durP1;ratioP1;P1;durP2;ratioP2;P2;SDS_P1;SDS_P2;PMS_P1;PMS_P2;Temp;Humidity;BMP_temperature;BMP_pressure;BME280_temperature;BME280_humidity;BME280_pressure;Samples;Min_cycle;Max_cycle;Signal;HPM_P1;HPM_P2
2021/08/13 00:02:11;;;;;;;6.73;6.13;;;20.10;99.90;;;;;;5053855;28;20195;-70
2021/08/13 00:04:38;;;;;;;6.30;5.70;;;20.10;99.90;;;;;;5053936;28;20240;-71
2021/08/13 00:07:04;;;;;;;7.10;6.40;;;20.00;99.90;;;;;;5052722;28;20461;-71
2021/08/13 00:09:29;;;;;;;6.47;5.87;;;20.00;99.90;;;;;;5053976;28;20914;-70
2021/08/13 00:11:55;;;;;;;7.00;6.43;;;20.00;99.90;;;;;;5052713;28;20467;-69
2021/08/13 00:14:20;;;;;;;8.13;6.20;;;19.90;99.90;;;;;;5053902;28;20170;-70
2021/08/13 00:16:46;;;;;;;6.97;6.33;;;19.90;99.90;;;;;;5053697;28;20317;-69
2021/08/13 00:19:11;;;;;;;8.00;6.37;;;19.90;99.90;;;;;;5050636;28;20179;-69
2021/08/13 00:21:37;;;;;;;7.53;6.30;;;19.80;99.90;;;;;;5053560;28;20246;-70
2021/08/13 00:24:03;;;;;;;6.40;5.80;;;19.80;99.90;;;;;;5053727;28;20543;-70
2021/08/13 00:26:28;;;;;;;7.50;6.80;;;19.80;99.90;;;;;;5053453;28;20203;-69
2021/08/13 00:28:55;;;;;;;7.80;6.47;;;19.80;99.90;;;;;;5053387;28;20578;-70
2021/08/13 00:31:20;;;;;;;8.00;7.17;;;19.80;99.90;;;;;;5053098;28;20187;-69
2021/08/13 00:33:46;;;;;;;7.70;6.40;;;19.70;99.90;;;;;;5053603;28;20421;-70
2021/08/13 00:36:11;;;;;;;7.07;6.37;;;19.70;99.90;;;;;;5053588;28;20509;-69
2021/08/13 00:38:37;;;;;;;8.90;6.40;;;19.70;99.90;;;;;;5053466;28;20178;-70
2021/08/13 00:41:03;;;;;;;8.90;6.50;;;19.60;99.90;;;;;;5053038;28;20602;-70
2021/08/13 00:43:29;;;;;;;7.33;6.63;;;19.60;99.90;;;;;;5053564;28;20267;-70
2021/08/13 00:45:54;;;;;;;8.07;6.83;;;19.60;99.90;;;;;;5053101;28;20430;-69
2021/08/13 00:48:20;;;;;;;8.30;6.33;;;19.60;99.90;;;;;;5052778;28;20607;-67
2021/08/13 00:50:45;;;;;;;7.33;6.70;;;19.60;99.90;;;;;;5053057;28;20250;-68
2021/08/13 00:53:11;;;;;;;6.30;5.80;;;19.60;99.90;;;;;;5052981;28;20178;-69
2021/08/13 00:55:37;;;;;;;7.00;6.30;;;19.60;99.90;;;;;;5053060;28;20190;-69
2021/08/13 00:58:03;;;;;;;7.17;6.57;;;19.60;99.90;;;;;;5052979;28;20866;-69
2021/08/13 01:00:30;;;;;;;8.30;7.43;;;19.60;99.90;;;;;;5052959;28;20186;-69
2021/08/13 01:02:56;;;;;;;7.37;6.70;;;19.60;99.90;;;;;;5052646;28;20437;-69
2021/08/13 01:05:22;;;;;;;10.80;7.03;;;19.60;99.90;;;;;;5053070;28;20404;-68
2021/08/13 01:07:48;;;;;;;7.70;6.90;;;19.60;99.90;;;;;;5052407;28;20197;-68
2021/08/13 01:10:14;;;;;;;8.13;7.17;;;19.60;99.90;;;;;;5052558;28;20172;-69
2021/08/13 01:12:51;;;;;;;7.23;6.53;;;19.60;99.90;;;;;;5052525;28;20752;-69
2021/08/13 01:15:18;;;;;;;10.20;8.00;;;19.50;99.90;;;;;;5052496;28;20167;-69
2021/08/13 01:17:56;;;;;;;8.70;6.77;;;19.50;99.90;;;;;;5053495;28;20402;-69
2021/08/13 01:21:08;;;;;;;7.23;6.47;;;19.50;99.90;;;;;;5052455;28;20966;-69
2021/08/13 01:23:48;;;;;;;7.30;6.60;;;19.50;99.90;;;;;;5052507;28;20418;-69
2021/08/13 01:26:15;;;;;;;7.50;6.80;;;19.40;99.90;;;;;;5052220;28;20460;-68
2021/08/13 01:29:03;;;;;;;8.07;7.37;;;19.40;99.90;;;;;;5052237;28;20411;-68
2021/08/13 01:31:36;;;;;;;6.50;5.90;;;19.40;99.90;;;;;;5051372;28;20511;-67
2021/08/13 01:34:06;;;;;;;7.47;6.77;;;19.30;99.90;;;;;;5051937;28;20434;-69
2021/08/13 01:36:32;;;;;;;7.90;7.20;;;19.30;99.90;;;;;;5051818;28;20612;-68
2021/08/13 01:39:01;;;;;;;8.97;7.20;;;19.30;99.90;;;;;;5048846;28;20417;-69
2021/08/13 01:41:31;;;;;;;7.50;6.70;;;19.30;99.90;;;;;;5051638;28;20422;-68
2021/08/13 01:43:58;;;;;;;7.10;6.50;;;19.30;99.90;;;;;;5044069;28;20432;-68
2021/08/13 01:46:24;;;;;;;8.13;7.33;;;19.30;99.90;;;;;;5031776;28;20404;-68
2021/08/13 01:48:50;;;;;;;7.40;6.70;;;19.30;99.90;;;;;;5031799;28;20427;-68
2021/08/13 01:51:18;;;;;;;7.43;6.90;;;19.30;99.90;;;;;;5031779;28;20429;-70
2021/08/13 01:53:45;;;;;;;7.60;6.90;;;19.20;99.90;;;;;;5031968;28;20431;-68
2021/08/13 01:56:11;;;;;;;7.87;6.70;;;19.20;99.90;;;;;;5031986;28;20402;-70
2021/08/13 01:58:37;;;;;;;7.97;7.17;;;19.20;99.90;;;;;;5032039;28;20455;-68
2021/08/13 02:01:03;;;;;;;11.70;9.80;;;19.10;99.90;;;;;;5030480;28;20431;-69
2021/08/13 02:03:30;;;;;;;7.53;6.77;;;19.10;99.90;;;;;;5031886;28;20426;-68
2021/08/13 02:05:56;;;;;;;7.60;6.83;;;19.10;99.90;;;;;;5031594;28;20411;-68
2021/08/13 02:08:23;;;;;;;8.30;7.13;;;19.10;99.90;;;;;;5031550;28;20483;-69
2021/08/13 02:10:49;;;;;;;7.70;7.00;;;19.10;99.90;;;;;;5031533;28;20415;-68
2021/08/13 02:13:15;;;;;;;8.43;6.57;;;19.10;99.90;;;;;;5031975;28;20419;-69
2021/08/13 02:15:46;;;;;;;8.03;7.23;;;19.10;99.90;;;;;;5030318;28;20414;-69
2021/08/13 02:18:18;;;;;;;7.67;6.77;;;19.10;99.90;;;;;;5031518;28;20472;-70
2021/08/13 02:20:47;;;;;;;8.47;6.90;;;19.10;99.90;;;;;;5031508;28;20422;-69
2021/08/13 02:23:12;;;;;;;7.60;6.90;;;19.20;99.90;;;;;;5031483;28;20467;-68
2021/08/13 02:25:38;;;;;;;10.70;6.80;;;19.20;99.90;;;;;;5031549;28;20439;-68
2021/08/13 02:28:04;;;;;;;6.90;6.20;;;19.10;99.90;;;;;;5031427;28;20700;-69
2021/08/13 02:30:30;;;;;;;8.60;7.90;;;19.10;99.90;;;;;;5029991;28;20182;-69
2021/08/13 02:32:55;;;;;;;9.00;8.10;;;19.10;99.90;;;;;;5031096;28;20263;-67
2021/08/13 02:35:20;;;;;;;6.93;6.33;;;19.10;99.90;;;;;;5031523;28;20415;-68
2021/08/13 02:37:57;;;;;;;12.43;7.73;;;19.10;99.90;;;;;;5031284;28;20241;-68
2021/08/13 02:40:30;;;;;;;8.10;7.37;;;19.10;99.90;;;;;;5030228;28;20597;-68
2021/08/13 02:43:15;;;;;;;7.80;7.10;;;19.10;99.90;;;;;;5030644;28;20867;-68
2021/08/13 02:45:45;;;;;;;6.93;6.30;;;19.10;99.90;;;;;;5031337;28;20421;-68
2021/08/13 02:48:12;;;;;;;8.93;7.33;;;19.10;99.90;;;;;;5031344;28;20462;-68
2021/08/13 02:50:40;;;;;;;11.70;7.00;;;19.10;99.90;;;;;;5031075;28;20406;-68
2021/08/13 02:53:09;;;;;;;8.13;6.87;;;19.10;99.90;;;;;;5031341;28;20786;-69
2021/08/13 02:55:45;;;;;;;8.00;7.30;;;19.20;99.90;;;;;;5029852;28;20786;-68
2021/08/13 02:58:16;;;;;;;7.57;6.97;;;19.10;99.90;;;;;;5031224;28;20406;-69
2021/08/13 03:00:43;;;;;;;7.30;6.60;;;19.10;99.90;;;;;;5031207;28;20556;-69
2021/08/13 03:03:11;;;;;;;7.63;6.83;;;19.10;99.90;;;;;;5031053;28;20444;-69
2021/08/13 03:05:42;;;;;;;8.30;7.50;;;19.10;99.90;;;;;;5031144;28;20411;-69
2021/08/13 03:08:08;;;;;;;7.20;6.50;;;19.10;99.90;;;;;;5031086;28;20455;-68
2021/08/13 03:10:34;;;;;;;8.80;7.80;;;19.00;99.90;;;;;;5031137;28;20473;-68
2021/08/13 03:13:00;;;;;;;8.20;7.50;;;19.00;99.90;;;;;;5031165;28;20524;-69
2021/08/13 03:15:28;;;;;;;8.17;7.37;;;19.00;99.90;;;;;;5031137;28;20414;-70
2021/08/13 03:17:54;;;;;;;8.57;7.67;;;19.00;99.90;;;;;;5031206;28;20173;-70
2021/08/13 03:20:20;;;;;;;7.80;7.10;;;19.00;99.90;;;;;;5031210;28;20413;-69
2021/08/13 03:22:46;;;;;;;8.53;7.30;;;19.00;99.90;;;;;;5031018;28;20946;-70
2021/08/13 03:25:12;;;;;;;8.50;7.70;;;19.00;99.90;;;;;;5031040;28;20686;-69
2021/08/13 03:27:41;;;;;;;7.53;6.83;;;19.00;99.90;;;;;;5030822;28;20555;-72
2021/08/13 03:30:07;;;;;;;7.93;7.10;;;19.00;99.90;;;;;;5031034;28;20406;-69
2021/08/13 03:32:33;;;;;;;10.17;6.97;;;19.00;99.90;;;;;;5030818;28;20429;-69
2021/08/13 03:34:59;;;;;;;8.00;7.20;;;19.00;99.90;;;;;;5030983;28;20423;-70
2021/08/13 03:37:25;;;;;;;8.43;7.63;;;19.00;99.90;;;;;;5030915;28;20892;-69
2021/08/13 03:39:50;;;;;;;8.00;7.20;;;19.00;99.90;;;;;;5030319;28;20176;-69
2021/08/13 03:42:16;;;;;;;7.90;7.23;;;19.00;99.90;;;;;;5030823;28;20434;-70
2021/08/13 03:44:41;;;;;;;9.00;8.20;;;19.00;99.90;;;;;;5030109;28;20176;-70
2021/08/13 03:47:07;;;;;;;10.30;9.10;;;18.90;99.90;;;;;;5030881;28;20291;-69
2021/08/13 03:49:32;;;;;;;9.20;7.90;;;18.90;99.90;;;;;;5030926;28;20183;-69
2021/08/13 03:51:59;;;;;;;9.40;7.60;;;18.90;99.90;;;;;;5030603;28;20201;-70
2021/08/13 03:54:24;;;;;;;8.20;7.57;;;18.90;99.90;;;;;;5033828;28;20915;-69
2021/08/13 03:56:50;;;;;;;9.03;7.10;;;18.90;99.90;;;;;;5034111;28;20430;-70
2021/08/13 03:59:15;;;;;;;7.97;7.27;;;19.00;99.90;;;;;;5034487;28;20179;-69
2021/08/13 04:01:41;;;;;;;7.50;6.90;;;19.00;99.90;;;;;;5034030;28;20279;-69
2021/08/13 04:04:06;;;;;;;7.97;7.10;;;19.00;99.90;;;;;;5034225;28;20184;-69
2021/08/13 04:06:32;;;;;;;7.60;7.00;;;19.00;99.90;;;;;;5034053;28;20246;-69
2021/08/13 04:08:57;;;;;;;11.93;7.60;;;19.10;99.90;;;;;;5033949;28;20384;-69
2021/08/13 04:11:23;;;;;;;10.00;8.33;;;19.10;99.90;;;;;;5034046;28;20248;-69
2021/08/13 04:13:48;;;;;;;8.17;7.37;;;19.10;99.90;;;;;;5034050;28;20164;-70
2021/08/13 04:16:14;;;;;;;7.60;6.90;;;19.20;99.90;;;;;;5034159;28;20643;-70
2021/08/13 04:18:39;;;;;;;7.70;7.10;;;19.20;99.90;;;;;;5033581;28;20692;-69
2021/08/13 04:21:05;;;;;;;10.10;6.90;;;19.30;99.90;;;;;;5033636;28;20195;-69
2021/08/13 04:23:30;;;;;;;8.10;7.17;;;19.30;99.90;;;;;;5033940;28;20187;-70
2021/08/13 04:25:56;;;;;;;7.70;7.00;;;19.40;99.90;;;;;;5033744;28;20176;-69
2021/08/13 04:28:21;;;;;;;8.27;7.47;;;19.50;99.90;;;;;;5033593;28;20204;-69
2021/08/13 04:30:47;;;;;;;8.13;7.30;;;19.40;99.90;;;;;;5033549;28;20178;-71
2021/08/13 04:33:14;;;;;;;7.90;7.20;;;19.40;99.90;;;;;;5033599;28;20199;-69
2021/08/13 04:35:39;;;;;;;8.57;7.67;;;19.40;99.90;;;;;;5033438;28;20539;-70
2021/08/13 04:38:05;;;;;;;7.93;7.33;;;19.50;99.90;;;;;;5033453;28;20426;-71
2021/08/13 04:40:31;;;;;;;7.80;7.10;;;19.50;99.90;;;;;;5033586;28;20266;-70
2021/08/13 04:42:57;;;;;;;11.97;7.67;;;19.50;99.90;;;;;;5033482;28;20538;-70
2021/08/13 04:45:23;;;;;;;7.77;7.17;;;19.50;99.90;;;;;;5033672;28;20194;-69
2021/08/13 04:47:48;;;;;;;8.50;7.80;;;19.50;99.90;;;;;;5033333;28;20208;-69
2021/08/13 04:50:14;;;;;;;7.70;7.00;;;19.50;99.90;;;;;;5033529;28;20180;-69
2021/08/13 04:52:44;;;;;;;7.90;7.13;;;19.50;99.90;;;;;;5033088;28;20199;-71
2021/08/13 04:55:11;;;;;;;9.80;8.43;;;19.50;99.90;;;;;;5033401;28;20542;-70
2021/08/13 04:57:36;;;;;;;10.30;8.40;;;19.50;99.90;;;;;;5033094;28;20409;-69
2021/08/13 05:00:03;;;;;;;9.97;8.70;;;19.50;99.90;;;;;;5033189;28;20414;-69
2021/08/13 05:02:29;;;;;;;8.30;7.50;;;19.50;99.90;;;;;;5033135;28;20227;-69
2021/08/13 05:04:59;;;;;;;8.23;6.60;;;19.40;99.90;;;;;;5032354;28;20424;-69
2021/08/13 05:07:24;;;;;;;8.40;7.60;;;19.50;99.90;;;;;;5033087;28;20458;-70
2021/08/13 05:09:50;;;;;;;9.60;8.70;;;19.60;99.90;;;;;;5033025;28;20497;-70
2021/08/13 05:12:15;;;;;;;8.23;7.40;;;19.60;99.90;;;;;;5033025;28;20191;-68
2021/08/13 05:14:40;;;;;;;7.50;6.90;;;19.70;99.90;;;;;;5033080;28;20183;-68
2021/08/13 05:17:06;;;;;;;8.27;7.47;;;19.70;99.90;;;;;;5032938;28;20173;-71
2021/08/13 05:19:31;;;;;;;8.80;7.90;;;19.70;99.90;;;;;;5031742;28;20202;-69
2021/08/13 05:21:57;;;;;;;9.10;8.30;;;19.70;99.90;;;;;;5032923;28;20274;-69
2021/08/13 05:24:25;;;;;;;8.33;7.53;;;19.70;99.90;;;;;;5033030;28;20175;-70
2021/08/13 05:26:50;;;;;;;8.33;7.57;;;19.70;99.90;;;;;;5032617;28;20200;-71
2021/08/13 05:29:16;;;;;;;9.37;7.87;;;19.80;99.90;;;;;;5032844;28;20918;-70
2021/08/13 05:31:41;;;;;;;11.37;8.37;;;19.80;99.90;;;;;;5032631;28;20234;-70
2021/08/13 05:34:07;;;;;;;11.50;8.17;;;19.80;99.90;;;;;;5032699;28;20176;-70
2021/08/13 05:36:33;;;;;;;9.30;8.47;;;19.80;99.90;;;;;;5032551;28;20250;-69
2021/08/13 05:38:58;;;;;;;10.70;8.17;;;19.80;99.90;;;;;;5032771;28;20214;-69
2021/08/13 05:41:24;;;;;;;9.23;8.20;;;19.80;99.90;;;;;;5033309;28;20565;-70
2021/08/13 05:43:49;;;;;;;9.23;7.83;;;19.70;99.90;;;;;;5033573;28;20206;-71
2021/08/13 05:46:15;;;;;;;7.83;7.23;;;19.80;99.90;;;;;;5033955;28;20542;-70
2021/08/13 05:48:40;;;;;;;13.17;8.23;;;19.90;99.90;;;;;;5033129;28;20567;-70
2021/08/13 05:51:06;;;;;;;10.27;9.00;;;19.90;99.90;;;;;;5032397;28;20261;-69
2021/08/13 05:53:31;;;;;;;8.53;7.70;;;20.00;99.90;;;;;;5031170;28;20164;-69
2021/08/13 05:55:57;;;;;;;8.60;7.70;;;20.00;99.90;;;;;;5032451;28;20523;-69
2021/08/13 05:58:22;;;;;;;9.17;8.13;;;20.00;99.90;;;;;;5030975;28;20648;-69
2021/08/13 06:00:48;;;;;;;10.33;9.50;;;19.90;99.90;;;;;;5032014;28;20191;-71
2021/08/13 06:03:13;;;;;;;9.33;7.70;;;20.20;99.90;;;;;;5031825;28;20189;-69
2021/08/13 06:05:39;;;;;;;7.77;7.03;;;20.80;99.90;;;;;;5032074;28;20272;-68
2021/08/13 06:08:04;;;;;;;12.70;8.07;;;21.30;99.90;;;;;;5030563;28;20296;-68
2021/08/13 06:10:30;;;;;;;8.77;7.97;;;21.90;99.90;;;;;;5032039;28;20223;-69
2021/08/13 06:12:58;;;;;;;8.80;8.00;;;22.30;99.90;;;;;;5031775;28;20194;-70
2021/08/13 06:15:23;;;;;;;9.17;8.37;;;22.60;99.90;;;;;;5031944;28;20168;-68
2021/08/13 06:17:49;;;;;;;8.13;7.27;;;23.00;99.90;;;;;;5031836;28;20410;-69
2021/08/13 06:20:19;;;;;;;10.30;7.60;;;23.40;99.90;;;;;;5031889;28;20179;-69
2021/08/13 06:22:45;;;;;;;12.17;8.33;;;23.90;99.90;;;;;;5031810;28;20183;-68
2021/08/13 06:25:11;;;;;;;10.73;7.53;;;23.60;99.90;;;;;;5031865;28;20425;-69
2021/08/13 06:27:41;;;;;;;8.67;7.87;;;23.90;99.90;;;;;;5031366;28;20202;-70
2021/08/13 06:30:17;;;;;;;8.27;6.30;;;24.50;99.90;;;;;;5032022;28;20170;-70
2021/08/13 06:32:42;;;;;;;9.20;7.83;;;25.10;99.90;;;;;;5031580;28;20461;-69
2021/08/13 06:35:08;;;;;;;7.80;6.80;;;25.00;99.90;;;;;;5031905;28;20851;-68
2021/08/13 06:37:46;;;;;;;9.03;7.07;;;25.40;99.90;;;;;;5030125;28;20560;-68
2021/08/13 06:40:12;;;;;;;7.70;6.97;;;25.60;99.90;;;;;;5031713;28;20424;-68
2021/08/13 06:42:39;;;;;;;12.93;7.70;;;25.90;99.90;;;;;;5031528;28;20472;-68
2021/08/13 06:45:06;;;;;;;8.50;7.70;;;26.10;99.90;;;;;;5030258;28;20518;-68
2021/08/13 06:47:31;;;;;;;10.13;7.80;;;25.90;99.90;;;;;;5031373;28;20461;-68
2021/08/13 06:49:58;;;;;;;8.57;6.90;;;26.30;99.90;;;;;;5030537;28;20419;-69
2021/08/13 06:52:23;;;;;;;7.63;7.03;;;26.40;99.90;;;;;;5030250;28;20697;-69
2021/08/13 06:54:49;;;;;;;7.00;6.17;;;26.70;99.90;;;;;;5032764;28;20407;-69
2021/08/13 06:57:14;;;;;;;12.87;7.13;;;26.70;99.90;;;;;;5031634;28;20183;-68
2021/08/13 06:59:40;;;;;;;10.87;7.10;;;26.70;99.90;;;;;;5031347;28;20229;-68
2021/08/13 07:02:05;;;;;;;8.93;7.80;;;27.10;99.90;;;;;;5031506;28;20563;-70
2021/08/13 07:04:33;;;;;;;8.00;7.20;;;26.80;99.90;;;;;;5031823;28;20203;-69
2021/08/13 07:06:59;;;;;;;9.47;7.60;;;27.10;99.90;;;;;;5014000;28;20297;-70
2021/08/13 07:09:24;;;;;;;7.43;6.80;;;27.00;99.90;;;;;;5030369;28;20520;-69
2021/08/13 07:11:50;;;;;;;8.27;6.27;;;27.40;99.90;;;;;;5030131;28;20217;-69
2021/08/13 07:14:15;;;;;;;6.40;5.80;;;28.00;99.90;;;;;;5031131;28;20174;-69
2021/08/13 07:16:41;;;;;;;7.40;6.70;;;27.50;99.90;;;;;;5047981;28;20183;-69
2021/08/13 07:19:06;;;;;;;7.67;6.90;;;27.40;99.90;;;;;;5043967;28;20542;-70
2021/08/13 07:21:31;;;;;;;7.63;6.37;;;26.90;99.90;;;;;;5048570;28;20273;-69
2021/08/13 07:23:57;;;;;;;7.70;6.90;;;28.00;99.90;;;;;;5044023;28;20186;-69
2021/08/13 07:26:23;;;;;;;7.90;6.13;;;28.10;99.90;;;;;;5051238;28;20167;-70
2021/08/13 07:28:48;;;;;;;6.40;5.80;;;29.10;99.90;;;;;;5046287;28;20182;-70
2021/08/13 07:31:14;;;;;;;7.40;6.70;;;28.70;99.10;;;;;;5055061;28;20187;-70
2021/08/13 07:33:39;;;;;;;9.30;5.83;;;28.50;99.90;;;;;;5055574;28;20194;-69
2021/08/13 07:36:05;;;;;;;6.37;5.90;;;28.80;99.90;;;;;;5047853;28;20221;-70
2021/08/13 07:38:35;;;;;;;10.00;6.67;;;29.40;99.90;;;;;;5055072;28;20522;-71
2021/08/13 07:41:00;;;;;;;6.97;6.37;;;29.70;99.20;;;;;;5055129;28;20263;-70
2021/08/13 07:43:26;;;;;;;9.47;6.00;;;29.40;99.90;;;;;;5055286;28;20409;-69
2021/08/13 07:45:51;;;;;;;5.80;5.40;;;29.10;98.70;;;;;;5053887;28;20170;-70
2021/08/13 07:48:17;;;;;;;7.20;6.10;;;29.80;99.90;;;;;;5054874;28;20199;-69
2021/08/13 07:50:42;;;;;;;6.00;5.50;;;29.40;99.00;;;;;;5054945;28;20170;-69
2021/08/13 07:53:08;;;;;;;8.13;6.13;;;30.10;97.90;;;;;;5047520;28;20249;-69
2021/08/13 07:55:33;;;;;;;5.73;5.33;;;29.50;98.00;;;;;;5054542;28;20177;-67
2021/08/13 07:57:59;;;;;;;7.47;6.77;;;30.30;97.50;;;;;;5054485;28;20257;-69
2021/08/13 08:00:24;;;;;;;5.80;5.07;;;30.80;96.80;;;;;;5054703;28;20533;-68
2021/08/13 08:02:50;;;;;;;10.70;6.73;;;30.50;96.10;;;;;;5054502;28;20210;-68
2021/08/13 08:05:16;;;;;;;10.70;7.20;;;30.80;96.40;;;;;;5054586;28;20171;-68
2021/08/13 08:07:41;;;;;;;6.33;5.77;;;29.60;96.30;;;;;;5054315;28;20607;-69
2021/08/13 08:10:07;;;;;;;7.00;6.30;;;29.70;97.40;;;;;;5054291;28;20242;-68
2021/08/13 08:12:32;;;;;;;6.20;5.60;;;29.80;96.20;;;;;;5053202;28;20195;-68
2021/08/13 08:14:58;;;;;;;7.50;5.90;;;30.30;96.60;;;;;;5053805;28;20167;-68
2021/08/13 08:17:23;;;;;;;6.37;5.77;;;31.70;92.20;;;;;;5042977;28;20179;-68
2021/08/13 08:19:49;;;;;;;6.50;5.97;;;30.70;95.20;;;;;;5033919;28;20172;-68
2021/08/13 08:22:14;;;;;;;5.33;4.93;;;30.60;95.10;;;;;;5050145;28;20209;-69
2021/08/13 08:24:40;;;;;;;5.30;4.90;;;31.40;95.10;;;;;;5053649;28;20236;-69
2021/08/13 08:27:06;;;;;;;7.23;5.57;;;32.00;93.00;;;;;;5053653;28;20203;-70
2021/08/13 08:29:32;;;;;;;8.23;5.50;;;31.50;92.80;;;;;;5052144;28;20402;-68
2021/08/13 08:31:57;;;;;;;8.13;6.00;;;30.50;94.00;;;;;;5053528;28;20472;-68
2021/08/13 08:34:23;;;;;;;11.57;5.33;;;30.70;93.30;;;;;;5053476;28;20186;-68
2021/08/13 08:36:48;;;;;;;6.93;5.27;;;30.40;94.60;;;;;;5053493;28;20185;-69
2021/08/13 08:39:14;;;;;;;5.87;5.20;;;30.60;94.10;;;;;;5052637;28;20607;-69
2021/08/13 08:41:41;;;;;;;7.53;5.57;;;30.70;92.20;;;;;;5052954;28;20186;-69
2021/08/13 08:44:07;;;;;;;5.40;4.87;;;30.90;93.20;;;;;;5050872;28;20171;-70
2021/08/13 08:46:32;;;;;;;7.03;5.07;;;29.60;94.90;;;;;;5059148;28;20486;-70
2021/08/13 08:48:58;;;;;;;5.73;5.23;;;31.10;93.80;;;;;;5061715;28;20174;-69
2021/08/13 08:51:25;;;;;;;5.87;5.37;;;31.10;91.60;;;;;;5052840;28;20226;-69
2021/08/13 08:53:53;;;;;;;5.27;4.77;;;30.80;92.40;;;;;;5051336;28;20170;-69
2021/08/13 08:56:22;;;;;;;9.60;4.60;;;30.90;93.50;;;;;;5052120;28;20516;-69
2021/08/13 08:58:48;;;;;;;5.83;4.97;;;31.60;91.80;;;;;;5052128;28;20444;-70
2021/08/13 09:01:14;;;;;;;5.00;4.50;;;32.40;91.50;;;;;;5040935;28;20511;-69
2021/08/13 09:03:41;;;;;;;5.40;4.90;;;32.00;91.60;;;;;;5048384;28;20445;-69
2021/08/13 09:06:07;;;;;;;5.57;5.10;;;31.50;92.70;;;;;;5033074;28;21035;-70
2021/08/13 09:08:33;;;;;;;5.53;5.13;;;30.20;92.80;;;;;;5032887;28;20564;-69
2021/08/13 09:10:59;;;;;;;5.60;5.10;;;30.60;94.20;;;;;;5033971;28;20278;-69
2021/08/13 09:13:24;;;;;;;4.77;4.37;;;30.50;93.60;;;;;;5048727;28;20183;-68
2021/08/13 09:15:52;;;;;;;6.40;5.80;;;31.20;93.10;;;;;;5052409;28;20427;-70
2021/08/13 09:18:25;;;;;;;7.80;5.17;;;30.60;93.10;;;;;;5048095;28;20626;-70
2021/08/13 09:20:59;;;;;;;7.07;5.10;;;31.00;92.70;;;;;;5032533;28;20426;-69
2021/08/13 09:23:42;;;;;;;5.73;4.53;;;31.20;93.70;;;;;;5032492;28;20426;-67
2021/08/13 09:26:12;;;;;;;5.40;4.90;;;30.60;92.30;;;;;;5032576;28;20424;-69
2021/08/13 09:28:40;;;;;;;5.90;5.30;;;30.60;93.10;;;;;;5044761;28;20647;-70
2021/08/13 09:31:17;;;;;;;6.30;4.80;;;31.20;92.10;;;;;;5039354;28;20587;-68
2021/08/13 09:33:48;;;;;;;6.53;4.77;;;31.00;91.80;;;;;;5042792;28;20418;-70
2021/08/13 09:36:16;;;;;;;5.37;4.90;;;31.30;93.00;;;;;;5044340;28;20451;-71
2021/08/13 09:38:42;;;;;;;5.27;4.80;;;31.30;91.80;;;;;;5034139;28;20456;-70
2021/08/13 09:41:12;;;;;;;5.17;4.70;;;31.00;92.30;;;;;;5040683;28;20449;-69
2021/08/13 09:44:02;;;;;;;5.13;4.60;;;30.90;91.70;;;;;;5038662;28;20232;-69
2021/08/13 09:46:30;;;;;;;4.43;4.03;;;30.80;92.30;;;;;;5052397;28;20493;-69
2021/08/13 09:49:16;;;;;;;5.30;4.80;;;31.40;92.70;;;;;;5052095;28;20421;-68
2021/08/13 09:51:42;;;;;;;4.83;4.00;;;31.00;91.30;;;;;;5032014;28;20520;-69
2021/08/13 09:54:11;;;;;;;6.27;4.40;;;30.80;91.70;;;;;;5053375;28;20436;-68
2021/08/13 09:56:40;;;;;;;5.37;4.87;;;31.40;92.10;;;;;;5031919;28;20433;-69
2021/08/13 09:59:15;;;;;;;4.20;3.90;;;32.40;90.40;;;;;;5032360;28;20417;-69
2021/08/13 10:01:43;;;;;;;4.90;4.60;;;31.60;91.90;;;;;;5037536;28;20447;-69
2021/08/13 10:04:10;;;;;;;5.80;5.00;;;31.20;91.10;;;;;;5036287;28;20528;-70
2021/08/13 10:06:39;;;;;;;5.30;4.53;;;30.80;92.30;;;;;;5039801;28;20419;-68
2021/08/13 10:09:06;;;;;;;4.80;4.40;;;31.00;92.50;;;;;;5050042;28;20935;-68
2021/08/13 10:11:35;;;;;;;8.80;5.27;;;30.70;92.90;;;;;;5051460;28;20437;-69
2021/08/13 10:14:03;;;;;;;7.27;5.33;;;30.80;92.30;;;;;;5050428;28;20423;-70
2021/08/13 10:16:29;;;;;;;5.00;4.60;;;30.40;91.60;;;;;;5034005;28;20431;-69
2021/08/13 10:18:55;;;;;;;5.57;5.07;;;29.80;92.90;;;;;;5051816;28;20421;-69
2021/08/13 10:21:25;;;;;;;6.17;5.67;;;29.90;92.90;;;;;;5051653;28;20835;-69
2021/08/13 10:23:52;;;;;;;5.97;5.37;;;30.40;92.80;;;;;;5051242;28;20428;-68
2021/08/13 10:26:22;;;;;;;5.90;5.40;;;30.70;91.30;;;;;;5051150;28;20822;-68
2021/08/13 10:28:49;;;;;;;6.50;4.80;;;30.30;92.70;;;;;;5047003;28;20864;-69
2021/08/13 10:31:20;;;;;;;6.23;5.03;;;30.80;92.10;;;;;;5030996;28;20438;-68
2021/08/13 10:33:48;;;;;;;5.30;4.90;;;30.20;91.40;;;;;;5040814;28;20413;-71
2021/08/13 10:36:17;;;;;;;5.23;4.73;;;29.60;91.70;;;;;;5047988;28;20422;-70
2021/08/13 10:38:47;;;;;;;5.03;4.03;;;29.70;91.50;;;;;;5031579;28;20425;-68
2021/08/13 10:41:14;;;;;;;4.67;4.30;;;29.90;92.60;;;;;;5045671;28;20437;-73
2021/08/13 10:43:42;;;;;;;6.20;5.37;;;30.10;92.00;;;;;;5034483;28;21006;-72
2021/08/13 10:46:11;;;;;;;8.70;4.90;;;29.90;91.80;;;;;;5033556;28;20445;-70
2021/08/13 10:48:41;;;;;;;4.83;4.37;;;29.70;92.50;;;;;;5042325;28;20480;-71
2021/08/13 10:51:09;;;;;;;5.33;4.00;;;29.70;92.30;;;;;;5045143;28;20491;-70
2021/08/13 10:53:37;;;;;;;6.30;5.20;;;29.40;92.30;;;;;;5049384;28;20410;-70
2021/08/13 10:56:06;;;;;;;7.00;5.47;;;30.00;92.10;;;;;;5045797;28;20854;-70
2021/08/13 10:58:34;;;;;;;6.10;4.23;;;30.00;92.20;;;;;;5041907;28;20421;-68
2021/08/13 11:01:09;;;;;;;4.70;4.20;;;29.80;93.50;;;;;;5040743;28;20469;-68
2021/08/13 11:03:46;;;;;;;7.00;4.50;;;29.70;92.30;;;;;;5032586;28;20529;-68
2021/08/13 11:06:11;;;;;;;5.53;5.07;;;29.40;93.00;;;;;;5036430;28;20429;-67
2021/08/13 11:08:40;;;;;;;6.90;4.80;;;29.60;92.90;;;;;;5037138;28;20545;-68
2021/08/13 11:11:09;;;;;;;4.33;4.00;;;29.40;92.00;;;;;;5036925;28;20232;-68
2021/08/13 11:13:39;;;;;;;5.43;4.93;;;29.50;93.00;;;;;;5036749;28;20426;-68
2021/08/13 11:16:32;;;;;;;5.60;4.50;;;29.80;92.00;;;;;;5035628;28;20426;-69
2021/08/13 11:19:00;;;;;;;4.93;4.43;;;29.70;92.10;;;;;;5046220;28;20406;-68
2021/08/13 11:21:39;;;;;;;6.67;4.20;;;29.70;91.70;;;;;;5034992;28;20441;-69
2021/08/13 11:24:13;;;;;;;5.30;4.80;;;29.60;91.80;;;;;;5053868;28;20538;-68
2021/08/13 11:26:47;;;;;;;5.57;4.93;;;29.90;91.30;;;;;;5039327;28;20424;-69
2021/08/13 11:29:33;;;;;;;6.90;5.63;;;29.60;91.10;;;;;;5048239;28;20426;-68
2021/08/13 11:32:27;;;;;;;5.90;4.87;;;29.80;91.50;;;;;;5040498;28;20440;-68
2021/08/13 11:34:58;;;;;;;5.77;5.23;;;29.60;91.10;;;;;;5049214;28;20748;-68
2021/08/13 11:37:43;;;;;;;6.80;4.90;;;29.90;91.50;;;;;;5045153;28;20417;-68
2021/08/13 11:40:12;;;;;;;6.63;5.07;;;29.80;91.50;;;;;;5056352;28;20424;-68
2021/08/13 11:42:47;;;;;;;5.80;5.30;;;29.80;92.40;;;;;;5045349;28;20528;-68
2021/08/13 11:45:14;;;;;;;5.67;5.17;;;29.80;90.60;;;;;;5052597;28;20424;-69
2021/08/13 11:47:52;;;;;;;5.70;5.20;;;30.00;90.70;;;;;;5055291;28;20471;-69
2021/08/13 11:50:20;;;;;;;9.03;5.43;;;30.00;91.00;;;;;;5047538;28;20421;-70
2021/08/13 11:52:46;;;;;;;7.40;5.47;;;30.00;91.80;;;;;;5053862;28;20986;-68
2021/08/13 11:55:23;;;;;;;5.80;5.30;;;30.20;91.60;;;;;;5041647;28;20568;-69
2021/08/13 11:57:50;;;;;;;5.93;5.43;;;30.00;91.60;;;;;;5036424;28;20424;-68
2021/08/13 12:00:21;;;;;;;6.63;6.00;;;29.80;90.80;;;;;;5038346;28;20409;-68
2021/08/13 12:02:47;;;;;;;6.40;5.80;;;30.20;90.10;;;;;;5039631;28;20508;-69
2021/08/13 12:05:14;;;;;;;6.27;5.43;;;30.50;89.80;;;;;;5036213;28;20418;-69
2021/08/13 12:07:40;;;;;;;5.90;5.40;;;30.30;89.70;;;;;;5035187;28;20554;-69
2021/08/13 12:10:14;;;;;;;8.73;5.13;;;30.10;90.60;;;;;;5035606;28;20414;-69
2021/08/13 12:12:43;;;;;;;6.30;5.73;;;30.30;90.90;;;;;;5046494;28;20445;-69
2021/08/13 12:15:11;;;;;;;6.43;5.83;;;30.20;90.70;;;;;;5035686;28;20421;-68
2021/08/13 12:17:37;;;;;;;5.83;5.17;;;30.20;91.10;;;;;;5036051;28;20796;-68
2021/08/13 12:20:06;;;;;;;5.93;5.43;;;30.30;90.90;;;;;;5035579;28;20468;-69
2021/08/13 12:22:34;;;;;;;6.50;5.30;;;30.10;91.10;;;;;;5034585;28;20459;-69
2021/08/13 12:25:04;;;;;;;8.03;5.60;;;30.10;91.20;;;;;;5039629;28;20428;-70
2021/08/13 12:27:32;;;;;;;6.47;5.70;;;29.90;91.70;;;;;;5047786;28;20540;-69
2021/08/13 12:29:59;;;;;;;5.57;5.07;;;30.00;92.70;;;;;;5043149;28;20442;-69
2021/08/13 12:32:38;;;;;;;7.43;6.83;;;30.50;91.70;;;;;;5052980;28;20482;-68
2021/08/13 12:35:05;;;;;;;6.27;5.67;;;30.80;90.90;;;;;;5050311;28;20406;-68
2021/08/13 12:37:31;;;;;;;6.50;5.90;;;30.80;91.30;;;;;;5045353;28;20421;-68
2021/08/13 12:40:01;;;;;;;6.10;5.43;;;30.70;90.60;;;;;;5044557;28;20459;-68
2021/08/13 12:42:30;;;;;;;5.90;5.27;;;30.30;90.40;;;;;;5035764;28;20340;-67
2021/08/13 12:44:58;;;;;;;6.53;5.70;;;30.70;90.50;;;;;;5034134;28;21083;-73
2021/08/13 12:47:25;;;;;;;6.90;6.10;;;30.50;90.30;;;;;;5033301;28;20466;-69
2021/08/13 12:49:51;;;;;;;8.73;6.13;;;29.70;90.10;;;;;;5035320;28;20409;-68